Master Jet — 5BKD3 — position and weather

sailwx.info

Track history (hours):
 
Tides and Currents Weather Stations Pressure Air Temp Water Temp Dewpoint Dewpoint Depression Visibility Wind Speed Wind Dir Waves Ship Positions

Master Jet

Last reported at 2015-Aug-30 09:33 UTC. Time now 2015-Aug-30 09:57 UTC.
Position N 37°10' E 025°16'.

Length 74 m; draft 2.9 m.

Type: Ship. MMSI: 209349000.

Date/timePositionNaut miles runAvg speedWind from/ knotsBaromVisibWave heightAir tempDewpointWater temp
2015-Aug-30 09:33N 37°10' E 025°16'4220.8
2015-Aug-30 07:32N 36°28' E 025°18'7 6.7
2015-Aug-30 06:33N 36°23' E 025°23'13 2.1
2015-Aug-30 00:13N 36°35' E 025°17'1421.2
2015-Aug-29 23:33N 36°23' E 025°26'0 0.0
2015-Aug-29 22:33N 36°23' E 025°26'2621.9
2015-Aug-29 21:23N 36°49' E 025°22'1821.4
2015-Aug-29 20:33N 37°06' E 025°22'1110.6
2015-Aug-29 19:33N 37°05' E 025°09'1716.7
2015-Aug-29 18:34N 37°21' E 025°16'1212.4
2015-Aug-29 17:34N 37°32' E 025°09'5225.1
2015-Aug-29 15:30N 37°57' E 024°12'9 9.9
2015-Aug-29 14:34N 38°01' E 024°02'5226.1
2015-Aug-29 12:34N 37°37' E 024°60'10 9.5
2015-Aug-29 11:34N 37°31' E 025°10'8 8.3
2015-Aug-29 10:33N 37°25' E 025°17'2121.0
2015-Aug-29 09:33N 37°05' E 025°09'1110.8
2015-Aug-29 08:34N 37°06' E 025°22'3223.2
2015-Aug-29 07:11N 36°35' E 025°16'1422.4
2015-Aug-29 06:33N 36°23' E 025°26'7 0.9
2015-Aug-28 22:33N 36°27' E 025°18'7 6.9
2015-Aug-28 21:33N 36°23' E 025°26'4321.8
2015-Aug-28 19:34N 37°06' E 025°22'1111.4
2015-Aug-28 18:34N 37°06' E 025°07'2424.0
2015-Aug-28 17:33N 37°28' E 025°19'1515.4
2015-Aug-28 16:33N 37°34' E 025°02'5527.5
2015-Aug-28 14:33N 38°01' E 024°01'1212.3
2015-Aug-28 13:33N 37°57' E 024°15'3027.5
2015-Aug-28 12:28N 37°43' E 024°49'1921.3
2015-Aug-28 11:34N 37°32' E 025°09'9 9.1
2015-Aug-28 10:34N 37°26' E 025°17'2120.7
2015-Aug-28 09:32N 37°05' E 025°09'1111.0
2015-Aug-28 08:34N 37°06' E 025°22'3124.9
2015-Aug-28 07:20N 36°36' E 025°15'1519.0
2015-Aug-28 06:31N 36°23' E 025°26'7 0.9
2015-Aug-27 23:33N 36°26' E 025°18'7 6.5
2015-Aug-27 22:32N 36°23' E 025°26'1818.5
2015-Aug-27 21:32N 36°42' E 025°25'2525.3
2015-Aug-27 20:33N 37°06' E 025°22'1212.1
2015-Aug-27 19:34N 37°06' E 025°07'2423.9
2015-Aug-27 18:33N 37°28' E 025°19'1211.8
2015-Aug-27 17:33N 37°33' E 025°06'5728.6
2015-Aug-27 15:33N 38°01' E 024°03'2 1.3
2015-Aug-27 14:21N 38°01' E 024°01'4826.9
2015-Aug-27 12:34N 37°40' E 024°56'1515.1
2015-Aug-27 11:34N 37°30' E 025°11'10 9.5
2015-Aug-27 10:33N 37°22' E 025°17'1817.6
2015-Aug-27 09:33N 37°05' E 025°09'1110.8
2015-Aug-27 08:34N 37°06' E 025°22'3123.4
2015-Aug-27 07:14N 36°36' E 025°16'1521.6
2015-Aug-27 06:33N 36°23' E 025°26'0 0.2
2015-Aug-27 05:33N 36°23' E 025°26'0 0.0
2015-Aug-27 04:33N 36°23' E 025°26'0 0.0
2015-Aug-27 03:32N 36°23' E 025°26'0 0.0
2015-Aug-27 02:32N 36°23' E 025°26'0 0.0
2015-Aug-27 01:32N 36°23' E 025°26'0 0.0
2015-Aug-27 00:33N 36°23' E 025°26'0 0.0
2015-Aug-26 23:32N 36°23' E 025°26'0 0.0
2015-Aug-26 22:32N 36°23' E 025°26'0 0.0
2015-Aug-26 21:33N 36°23' E 025°26'2211.2
2015-Aug-26 19:33N 36°37' E 025°04'8416.3
2015-Aug-26 14:22N 37°36' E 023°48'2227.4
2015-Aug-26 13:34N 37°56' E 023°37'4 4.2
2015-Aug-26 12:34N 37°52' E 023°39'11316.1
2015-Aug-26 05:33N 36°32' E 025°18'1110.5
2015-Aug-26 04:32N 36°23' E 025°26'0 0.0
2015-Aug-26 03:33N 36°23' E 025°26'0 0.0
2015-Aug-26 02:34N 36°23' E 025°26'0 0.0
2015-Aug-26 01:32N 36°23' E 025°26'0 0.0
2015-Aug-26 00:33N 36°23' E 025°26'0 0.0
2015-Aug-25 23:33N 36°23' E 025°26'0 0.0
2015-Aug-25 22:33N 36°23' E 025°26'7 6.6
2015-Aug-25 21:33N 36°29' E 025°21'1414.2
2015-Aug-25 20:32N 36°40' E 025°09'8316.0
2015-Aug-25 15:19N 37°36' E 023°53'2127.0
2015-Aug-25 14:33N 37°53' E 023°37'4 4.0
2015-Aug-25 13:33N 37°56' E 023°38'2120.6
2015-Aug-25 12:33N 37°38' E 023°51'8215.6
2015-Aug-25 07:19N 36°37' E 024°58'17 9.9
2015-Aug-25 05:33N 36°30' E 025°18'9 9.3
2015-Aug-25 04:33N 36°23' E 025°26'0 0.0
2015-Aug-25 03:33N 36°23' E 025°26'0 0.0
2015-Aug-25 02:33N 36°23' E 025°26'0 0.0
2015-Aug-25 01:33N 36°23' E 025°26'0 0.0
2015-Aug-25 00:32N 36°23' E 025°26'0 0.0
2015-Aug-24 23:33N 36°23' E 025°26'0 0.0
2015-Aug-24 22:33N 36°23' E 025°26'0 0.0
2015-Aug-24 21:32N 36°23' E 025°26'1 1.3
2015-Aug-24 20:33N 36°23' E 025°24'10617.2
2015-Aug-24 14:25N 37°36' E 023°49'2225.8
2015-Aug-24 13:33N 37°56' E 023°38'4 4.1
2015-Aug-24 12:33N 37°52' E 023°39'11316.2
2015-Aug-24 05:32N 36°31' E 025°18'10 9.5
2015-Aug-24 04:29N 36°23' E 025°26'0 0.0
2015-Aug-24 03:33N 36°23' E 025°26'0 0.0
2015-Aug-24 02:32N 36°23' E 025°26'0 0.0
2015-Aug-24 01:32N 36°23' E 025°26'0 0.0
2015-Aug-24 00:32N 36°23' E 025°26'0 0.0
2015-Aug-23 23:32N 36°23' E 025°26'0 0.0
2015-Aug-23 22:32N 36°23' E 025°26'0 0.0
2015-Aug-23 21:32N 36°23' E 025°26'11015.8
2015-Aug-23 14:33N 37°38' E 023°44'1919.0
2015-Aug-23 13:33N 37°57' E 023°38'1111.5
2015-Aug-23 12:33N 37°46' E 023°43'9116.6
2015-Aug-23 07:05N 36°37' E 024°57'1811.7
2015-Aug-23 05:33N 36°31' E 025°18'10 9.4
2015-Aug-23 04:30N 36°23' E 025°26'0 0.0
2015-Aug-23 03:34N 36°23' E 025°26'0 0.0
2015-Aug-23 02:33N 36°23' E 025°26'0 0.0
2015-Aug-23 01:33N 36°23' E 025°26'0 0.0
2015-Aug-23 00:33N 36°23' E 025°26'0 0.0
2015-Aug-22 23:33N 36°23' E 025°26'0 0.0
2015-Aug-22 22:32N 36°23' E 025°26'0 0.0
2015-Aug-22 21:33N 36°23' E 025°26'0 0.0
2015-Aug-22 20:33N 36°23' E 025°26'10416.5
2015-Aug-22 14:16N 37°34' E 023°51'1927.0
2015-Aug-22 13:34N 37°49' E 023°37'7 6.5
2015-Aug-22 12:34N 37°56' E 023°37'11917.0
2015-Aug-22 05:33N 36°28' E 025°18'8 7.8
2015-Aug-22 04:32N 36°23' E 025°26'0 0.0
2015-Aug-22 03:32N 36°23' E 025°26'0 0.0
2015-Aug-22 02:32N 36°23' E 025°26'0 0.0
2015-Aug-22 01:33N 36°23' E 025°26'0 0.0
2015-Aug-22 00:33N 36°23' E 025°26'0 0.0
2015-Aug-21 23:32N 36°23' E 025°26'0 0.0
2015-Aug-21 22:32N 36°23' E 025°26'0 0.0
2015-Aug-21 21:33N 36°23' E 025°26'0 0.0
2015-Aug-21 20:32N 36°23' E 025°26'3 3.3
2015-Aug-21 19:33N 36°24' E 025°22'11018.3
2015-Aug-21 13:33N 37°40' E 023°42'1716.9
2015-Aug-21 12:33N 37°57' E 023°38'1111.5
2015-Aug-21 11:33N 37°46' E 023°43'10317.2
2015-Aug-21 05:32N 36°34' E 025°16'1313.4
2015-Aug-21 04:34N 36°23' E 025°26'0 0.0
2015-Aug-21 03:33N 36°23' E 025°26'0 0.0
2015-Aug-21 02:33N 36°23' E 025°26'0 0.0
2015-Aug-21 01:33N 36°23' E 025°26'0 0.0
2015-Aug-21 00:33N 36°23' E 025°26'0 0.0
2015-Aug-20 23:33N 36°23' E 025°26'0 0.0
2015-Aug-20 22:32N 36°23' E 025°26'0 0.0
2015-Aug-20 21:33N 36°23' E 025°26'0 0.0
2015-Aug-20 20:33N 36°23' E 025°26'0 0.3
2015-Aug-20 19:33N 36°23' E 025°25'2320.7
2015-Aug-20 18:27N 36°43' E 025°12'3129.2
2015-Aug-20 17:22N 36°46' E 024°33'7 8.5
2015-Aug-20 16:34N 36°46' E 024°24'1915.9
2015-Aug-20 15:21N 37°05' E 024°28'2228.1
2015-Aug-20 14:34N 37°20' E 024°08'2928.6
2015-Aug-20 13:33N 37°41' E 023°42'1616.4
2015-Aug-20 12:34N 37°57' E 023°38'1716.8
2015-Aug-20 11:34N 37°41' E 023°46'2828.0
2015-Aug-20 10:33N 37°20' E 024°10'  
Track history (hours):
 
Tides and Currents Weather Stations Pressure Air Temp Water Temp Dewpoint Dewpoint Depression Visibility Wind Speed Wind Dir Waves Ship Positions

Master Jet

Last reported at 2015-Aug-30 09:33 UTC. Time now 2015-Aug-30 09:57 UTC.
Position N 37°10' E 025°16'.

Length 74 m; draft 2.9 m.

Type: Ship. MMSI: 209349000.

Date/timePositionNaut miles runAvg speedWind from/ knotsBaromVisibWave heightAir tempDewpointWater temp
2015-Aug-30 09:33N 37°10' E 025°16'4220.8
2015-Aug-30 07:32N 36°28' E 025°18'7 6.7
2015-Aug-30 06:33N 36°23' E 025°23'13 2.1
2015-Aug-30 00:13N 36°35' E 025°17'1421.2
2015-Aug-29 23:33N 36°23' E 025°26'0 0.0
2015-Aug-29 22:33N 36°23' E 025°26'2621.9
2015-Aug-29 21:23N 36°49' E 025°22'1821.4
2015-Aug-29 20:33N 37°06' E 025°22'1110.6
2015-Aug-29 19:33N 37°05' E 025°09'1716.7
2015-Aug-29 18:34N 37°21' E 025°16'1212.4
2015-Aug-29 17:34N 37°32' E 025°09'5225.1
2015-Aug-29 15:30N 37°57' E 024°12'9 9.9
2015-Aug-29 14:34N 38°01' E 024°02'5226.1
2015-Aug-29 12:34N 37°37' E 024°60'10 9.5
2015-Aug-29 11:34N 37°31' E 025°10'8 8.3
2015-Aug-29 10:33N 37°25' E 025°17'2121.0
2015-Aug-29 09:33N 37°05' E 025°09'1110.8
2015-Aug-29 08:34N 37°06' E 025°22'3223.2
2015-Aug-29 07:11N 36°35' E 025°16'1422.4
2015-Aug-29 06:33N 36°23' E 025°26'7 0.9
2015-Aug-28 22:33N 36°27' E 025°18'7 6.9
2015-Aug-28 21:33N 36°23' E 025°26'4321.8
2015-Aug-28 19:34N 37°06' E 025°22'1111.4
2015-Aug-28 18:34N 37°06' E 025°07'2424.0
2015-Aug-28 17:33N 37°28' E 025°19'1515.4
2015-Aug-28 16:33N 37°34' E 025°02'5527.5
2015-Aug-28 14:33N 38°01' E 024°01'1212.3
2015-Aug-28 13:33N 37°57' E 024°15'3027.5
2015-Aug-28 12:28N 37°43' E 024°49'1921.3
2015-Aug-28 11:34N 37°32' E 025°09'9 9.1
2015-Aug-28 10:34N 37°26' E 025°17'2120.7
2015-Aug-28 09:32N 37°05' E 025°09'1111.0
2015-Aug-28 08:34N 37°06' E 025°22'3124.9
2015-Aug-28 07:20N 36°36' E 025°15'1519.0
2015-Aug-28 06:31N 36°23' E 025°26'7 0.9
2015-Aug-27 23:33N 36°26' E 025°18'7 6.5
2015-Aug-27 22:32N 36°23' E 025°26'1818.5
2015-Aug-27 21:32N 36°42' E 025°25'2525.3
2015-Aug-27 20:33N 37°06' E 025°22'1212.1
2015-Aug-27 19:34N 37°06' E 025°07'2423.9
2015-Aug-27 18:33N 37°28' E 025°19'1211.8
2015-Aug-27 17:33N 37°33' E 025°06'5728.6
2015-Aug-27 15:33N 38°01' E 024°03'2 1.3
2015-Aug-27 14:21N 38°01' E 024°01'4826.9
2015-Aug-27 12:34N 37°40' E 024°56'1515.1
2015-Aug-27 11:34N 37°30' E 025°11'10 9.5
2015-Aug-27 10:33N 37°22' E 025°17'1817.6
2015-Aug-27 09:33N 37°05' E 025°09'1110.8
2015-Aug-27 08:34N 37°06' E 025°22'3123.4
2015-Aug-27 07:14N 36°36' E 025°16'1521.6
2015-Aug-27 06:33N 36°23' E 025°26'0 0.2
2015-Aug-27 05:33N 36°23' E 025°26'0 0.0
2015-Aug-27 04:33N 36°23' E 025°26'0 0.0
2015-Aug-27 03:32N 36°23' E 025°26'0 0.0
2015-Aug-27 02:32N 36°23' E 025°26'0 0.0
2015-Aug-27 01:32N 36°23' E 025°26'0 0.0
2015-Aug-27 00:33N 36°23' E 025°26'0 0.0
2015-Aug-26 23:32N 36°23' E 025°26'0 0.0
2015-Aug-26 22:32N 36°23' E 025°26'0 0.0
2015-Aug-26 21:33N 36°23' E 025°26'2211.2
2015-Aug-26 19:33N 36°37' E 025°04'8416.3
2015-Aug-26 14:22N 37°36' E 023°48'2227.4
2015-Aug-26 13:34N 37°56' E 023°37'4 4.2
2015-Aug-26 12:34N 37°52' E 023°39'11316.1
2015-Aug-26 05:33N 36°32' E 025°18'1110.5
2015-Aug-26 04:32N 36°23' E 025°26'0 0.0
2015-Aug-26 03:33N 36°23' E 025°26'0 0.0
2015-Aug-26 02:34N 36°23' E 025°26'0 0.0
2015-Aug-26 01:32N 36°23' E 025°26'0 0.0
2015-Aug-26 00:33N 36°23' E 025°26'0 0.0
2015-Aug-25 23:33N 36°23' E 025°26'0 0.0
2015-Aug-25 22:33N 36°23' E 025°26'7 6.6
2015-Aug-25 21:33N 36°29' E 025°21'1414.2
2015-Aug-25 20:32N 36°40' E 025°09'8316.0
2015-Aug-25 15:19N 37°36' E 023°53'2127.0
2015-Aug-25 14:33N 37°53' E 023°37'4 4.0
2015-Aug-25 13:33N 37°56' E 023°38'2120.6
2015-Aug-25 12:33N 37°38' E 023°51'8215.6
2015-Aug-25 07:19N 36°37' E 024°58'17 9.9
2015-Aug-25 05:33N 36°30' E 025°18'9 9.3
2015-Aug-25 04:33N 36°23' E 025°26'0 0.0
2015-Aug-25 03:33N 36°23' E 025°26'0 0.0
2015-Aug-25 02:33N 36°23' E 025°26'0 0.0
2015-Aug-25 01:33N 36°23' E 025°26'0 0.0
2015-Aug-25 00:32N 36°23' E 025°26'0 0.0
2015-Aug-24 23:33N 36°23' E 025°26'0 0.0
2015-Aug-24 22:33N 36°23' E 025°26'0 0.0
2015-Aug-24 21:32N 36°23' E 025°26'1 1.3
2015-Aug-24 20:33N 36°23' E 025°24'10617.2
2015-Aug-24 14:25N 37°36' E 023°49'2225.8
2015-Aug-24 13:33N 37°56' E 023°38'4 4.1
2015-Aug-24 12:33N 37°52' E 023°39'11316.2
2015-Aug-24 05:32N 36°31' E 025°18'10 9.5
2015-Aug-24 04:29N 36°23' E 025°26'0 0.0
2015-Aug-24 03:33N 36°23' E 025°26'0 0.0
2015-Aug-24 02:32N 36°23' E 025°26'0 0.0
2015-Aug-24 01:32N 36°23' E 025°26'0 0.0
2015-Aug-24 00:32N 36°23' E 025°26'0 0.0
2015-Aug-23 23:32N 36°23' E 025°26'0 0.0
2015-Aug-23 22:32N 36°23' E 025°26'0 0.0
2015-Aug-23 21:32N 36°23' E 025°26'11015.8
2015-Aug-23 14:33N 37°38' E 023°44'1919.0
2015-Aug-23 13:33N 37°57' E 023°38'1111.5
2015-Aug-23 12:33N 37°46' E 023°43'9116.6
2015-Aug-23 07:05N 36°37' E 024°57'1811.7
2015-Aug-23 05:33N 36°31' E 025°18'10 9.4
2015-Aug-23 04:30N 36°23' E 025°26'0 0.0
2015-Aug-23 03:34N 36°23' E 025°26'0 0.0
2015-Aug-23 02:33N 36°23' E 025°26'0 0.0
2015-Aug-23 01:33N 36°23' E 025°26'0 0.0
2015-Aug-23 00:33N 36°23' E 025°26'0 0.0
2015-Aug-22 23:33N 36°23' E 025°26'0 0.0
2015-Aug-22 22:32N 36°23' E 025°26'0 0.0
2015-Aug-22 21:33N 36°23' E 025°26'0 0.0
2015-Aug-22 20:33N 36°23' E 025°26'10416.5
2015-Aug-22 14:16N 37°34' E 023°51'1927.0
2015-Aug-22 13:34N 37°49' E 023°37'7 6.5
2015-Aug-22 12:34N 37°56' E 023°37'11917.0
2015-Aug-22 05:33N 36°28' E 025°18'8 7.8
2015-Aug-22 04:32N 36°23' E 025°26'0 0.0
2015-Aug-22 03:32N 36°23' E 025°26'0 0.0
2015-Aug-22 02:32N 36°23' E 025°26'0 0.0
2015-Aug-22 01:33N 36°23' E 025°26'0 0.0
2015-Aug-22 00:33N 36°23' E 025°26'0 0.0
2015-Aug-21 23:32N 36°23' E 025°26'0 0.0
2015-Aug-21 22:32N 36°23' E 025°26'0 0.0
2015-Aug-21 21:33N 36°23' E 025°26'0 0.0
2015-Aug-21 20:32N 36°23' E 025°26'3 3.3
2015-Aug-21 19:33N 36°24' E 025°22'11018.3
2015-Aug-21 13:33N 37°40' E 023°42'1716.9
2015-Aug-21 12:33N 37°57' E 023°38'1111.5
2015-Aug-21 11:33N 37°46' E 023°43'10317.2
2015-Aug-21 05:32N 36°34' E 025°16'1313.4
2015-Aug-21 04:34N 36°23' E 025°26'0 0.0
2015-Aug-21 03:33N 36°23' E 025°26'0 0.0
2015-Aug-21 02:33N 36°23' E 025°26'0 0.0
2015-Aug-21 01:33N 36°23' E 025°26'0 0.0
2015-Aug-21 00:33N 36°23' E 025°26'0 0.0
2015-Aug-20 23:33N 36°23' E 025°26'0 0.0
2015-Aug-20 22:32N 36°23' E 025°26'0 0.0
2015-Aug-20 21:33N 36°23' E 025°26'0 0.0
2015-Aug-20 20:33N 36°23' E 025°26'0 0.3
2015-Aug-20 19:33N 36°23' E 025°25'2320.7
2015-Aug-20 18:27N 36°43' E 025°12'3129.2
2015-Aug-20 17:22N 36°46' E 024°33'7 8.5
2015-Aug-20 16:34N 36°46' E 024°24'1915.9
2015-Aug-20 15:21N 37°05' E 024°28'2228.1
2015-Aug-20 14:34N 37°20' E 024°08'2928.6
2015-Aug-20 13:33N 37°41' E 023°42'1616.4
2015-Aug-20 12:34N 37°57' E 023°38'1716.8
2015-Aug-20 11:34N 37°41' E 023°46'2828.0
2015-Aug-20 10:33N 37°20' E 024°10'  

Dump ship's entire track history